createdAt,value
2018-10-19T00:01:37.511Z,9.90
2018-10-19T00:04:05.010Z,10.53
2018-10-19T00:06:32.495Z,10.05
2018-10-19T00:08:59.982Z,9.70
2018-10-19T00:11:27.434Z,10.50
2018-10-19T00:13:55.453Z,10.08
2018-10-19T00:16:23.030Z,11.05
2018-10-19T00:18:51.171Z,11.95
2018-10-19T00:21:18.725Z,10.45
2018-10-19T00:23:50.346Z,10.30
2018-10-19T00:26:17.782Z,10.68
2018-10-19T00:31:12.094Z,9.73
2018-10-19T00:33:44.308Z,9.55
2018-10-19T00:36:11.727Z,9.83
2018-10-19T00:38:39.304Z,10.53
2018-10-19T00:41:06.801Z,10.93
2018-10-19T00:43:34.291Z,9.73
2018-10-19T00:46:01.798Z,10.85
2018-10-19T00:48:29.203Z,9.13
2018-10-19T00:50:57.295Z,9.20
2018-10-19T00:53:24.800Z,10.20
2018-10-19T00:55:52.223Z,10.35
2018-10-19T00:58:19.696Z,10.05
2018-10-19T01:00:47.725Z,9.98
2018-10-19T01:03:16.117Z,9.70
2018-10-19T01:05:43.486Z,10.13
2018-10-19T01:08:16.069Z,10.68
2018-10-19T01:10:43.526Z,9.70
2018-10-19T01:13:10.966Z,10.35
2018-10-19T01:15:38.460Z,10.10
2018-10-19T01:18:05.876Z,9.95
2018-10-19T01:20:34.302Z,10.95
2018-10-19T01:23:01.809Z,10.65
2018-10-19T01:25:30.182Z,12.13
2018-10-19T01:27:57.685Z,11.03
2018-10-19T01:30:25.308Z,9.65
2018-10-19T01:32:52.705Z,10.63
2018-10-19T01:35:20.116Z,10.45
2018-10-19T01:37:48.083Z,9.65
2018-10-19T01:40:15.666Z,9.53
2018-10-19T01:42:43.160Z,8.20
2018-10-19T01:45:12.038Z,8.78
2018-10-19T01:47:40.117Z,8.20
2018-10-19T01:50:09.027Z,8.00
2018-10-19T01:52:36.442Z,6.87
2018-10-19T01:55:03.942Z,6.85
2018-10-19T01:57:32.119Z,7.42
2018-10-19T01:59:59.554Z,7.08
2018-10-19T02:02:27.063Z,7.72
2018-10-19T02:04:54.452Z,8.60
2018-10-19T02:07:22.419Z,8.20
2018-10-19T02:09:49.887Z,8.50
2018-10-19T02:12:17.395Z,8.28
2018-10-19T02:14:44.807Z,8.53
2018-10-19T02:17:12.310Z,7.53
2018-10-19T02:19:39.711Z,7.12
2018-10-19T02:22:07.587Z,6.65
2018-10-19T02:24:35.199Z,6.45
2018-10-19T02:27:02.643Z,6.10
2018-10-19T02:29:30.311Z,6.80
2018-10-19T02:31:57.802Z,6.05
2018-10-19T02:34:25.260Z,5.40
2018-10-19T02:36:52.752Z,6.55
2018-10-19T02:39:20.642Z,5.87
2018-10-19T02:41:48.392Z,6.87
2018-10-19T02:44:15.854Z,6.85
2018-10-19T02:46:43.261Z,7.60
2018-10-19T02:49:10.754Z,6.40
2018-10-19T02:51:38.352Z,6.50
2018-10-19T02:54:06.564Z,7.40
2018-10-19T02:56:34.030Z,6.58
2018-10-19T02:59:01.558Z,6.58
2018-10-19T03:01:28.951Z,7.03
2018-10-19T03:03:56.378Z,6.92
2018-10-19T03:06:23.909Z,7.03
2018-10-19T03:08:55.992Z,6.50
2018-10-19T03:11:23.426Z,7.20
2018-10-19T03:13:51.009Z,7.22
2018-10-19T03:16:18.547Z,7.50
2018-10-19T03:18:46.278Z,7.03
2018-10-19T03:21:13.807Z,6.25
2018-10-19T03:23:41.150Z,7.95
2018-10-19T03:28:36.342Z,8.28
2018-10-19T03:31:05.186Z,8.70
2018-10-19T03:33:32.586Z,9.50
2018-10-19T03:36:00.834Z,9.13
2018-10-19T03:38:28.264Z,9.73
2018-10-19T03:40:56.575Z,9.85
2018-10-19T03:43:23.982Z,8.80
2018-10-19T03:45:51.501Z,8.90
2018-10-19T03:48:18.949Z,9.85
2018-10-19T03:50:46.910Z,9.60
2018-10-19T03:53:14.313Z,9.15
2018-10-19T03:55:41.938Z,8.85
2018-10-19T03:58:09.666Z,8.30
2018-10-19T04:00:37.123Z,8.70
2018-10-19T04:03:04.606Z,9.28
2018-10-19T04:05:32.133Z,8.40
2018-10-19T04:07:59.579Z,8.80
2018-10-19T04:10:27.030Z,8.05
2018-10-19T04:12:54.547Z,10.70
2018-10-19T04:15:21.916Z,10.70
2018-10-19T04:17:49.417Z,11.25
2018-10-19T04:20:16.772Z,11.28
2018-10-19T04:22:44.194Z,12.20
2018-10-19T04:25:11.539Z,11.80
2018-10-19T04:27:39.084Z,11.75
2018-10-19T04:30:08.039Z,12.05
2018-10-19T04:32:35.479Z,12.20
2018-10-19T04:35:03.100Z,11.78
2018-10-19T04:37:30.401Z,10.60
2018-10-19T04:39:57.926Z,10.85
2018-10-19T04:42:25.539Z,10.65
2018-10-19T04:44:52.937Z,11.80
2018-10-19T04:47:20.429Z,10.35
2018-10-19T04:49:47.961Z,10.53
2018-10-19T04:52:15.668Z,10.03
2018-10-19T04:54:43.126Z,11.03
2018-10-19T04:57:10.959Z,13.10
2018-10-19T04:59:38.486Z,11.65
2018-10-19T05:02:05.871Z,12.90
2018-10-19T05:04:33.345Z,10.80
2018-10-19T05:07:00.675Z,11.20
2018-10-19T05:09:28.088Z,11.57
2018-10-19T05:11:55.481Z,11.70
2018-10-19T05:14:22.883Z,12.85
2018-10-19T05:16:50.283Z,11.22
2018-10-19T05:19:17.681Z,12.70
2018-10-19T05:21:45.101Z,11.55
2018-10-19T05:24:13.126Z,12.33
2018-10-19T05:26:40.487Z,10.60
2018-10-19T05:29:07.963Z,10.18
2018-10-19T05:31:35.227Z,11.97
2018-10-19T05:34:02.610Z,12.40
2018-10-19T05:36:30.027Z,10.50
2018-10-19T05:38:57.447Z,10.63
2018-10-19T05:41:24.833Z,10.25
2018-10-19T05:43:52.281Z,10.20
2018-10-19T05:46:19.676Z,11.73
2018-10-19T05:48:47.205Z,9.73
2018-10-19T05:51:14.622Z,10.28
2018-10-19T05:53:42.057Z,10.85
2018-10-19T05:56:09.720Z,11.35
2018-10-19T05:58:37.482Z,11.03
2018-10-19T06:01:05.034Z,12.70
2018-10-19T06:03:32.538Z,11.78
2018-10-19T06:05:59.923Z,10.38
2018-10-19T06:08:27.633Z,10.70
2018-10-19T06:10:54.964Z,11.73
2018-10-19T06:13:22.335Z,12.40
2018-10-19T06:15:49.629Z,12.85
2018-10-19T06:18:16.958Z,12.95
2018-10-19T06:20:44.263Z,10.82
2018-10-19T06:23:11.710Z,13.43
2018-10-19T06:25:39.056Z,11.55
2018-10-19T06:28:06.503Z,11.95
2018-10-19T06:30:34.438Z,13.58
2018-10-19T06:33:01.809Z,16.55
2018-10-19T06:35:29.224Z,11.40
2018-10-19T06:37:56.692Z,13.83
2018-10-19T06:40:24.038Z,11.68
2018-10-19T06:42:51.499Z,12.50
2018-10-19T06:45:18.850Z,12.10
2018-10-19T06:47:46.150Z,12.78
2018-10-19T06:50:13.528Z,13.08
2018-10-19T06:52:41.328Z,12.50
2018-10-19T06:55:09.255Z,12.88
2018-10-19T06:57:36.591Z,13.00
2018-10-19T07:00:04.512Z,13.05
2018-10-19T07:02:31.809Z,12.40
2018-10-19T07:04:59.492Z,13.75
2018-10-19T07:07:26.878Z,13.10
2018-10-19T07:09:54.200Z,13.62
2018-10-19T07:12:21.586Z,12.23
2018-10-19T07:14:49.257Z,13.05
2018-10-19T07:17:16.971Z,13.40
2018-10-19T07:19:44.226Z,12.95
2018-10-19T07:22:11.614Z,13.20
2018-10-19T07:24:38.945Z,13.15
2018-10-19T07:27:06.343Z,14.38
2018-10-19T07:29:33.746Z,13.43
2018-10-19T07:32:01.076Z,12.20
2018-10-19T07:34:28.762Z,12.58
2018-10-19T07:36:56.159Z,13.35
2018-10-19T07:39:23.799Z,12.53
2018-10-19T07:41:51.215Z,12.80
2018-10-19T07:44:18.563Z,12.35
2018-10-19T07:46:46.174Z,12.40
2018-10-19T07:49:13.591Z,12.80
2018-10-19T07:51:40.988Z,12.55
2018-10-19T07:54:08.447Z,11.90
2018-10-19T07:56:36.325Z,11.90
2018-10-19T07:59:04.464Z,12.00
2018-10-19T08:01:31.848Z,12.50
2018-10-19T08:03:59.238Z,12.15
2018-10-19T08:06:26.632Z,11.50
2018-10-19T08:08:53.995Z,12.40
2018-10-19T08:11:21.343Z,11.12
2018-10-19T08:13:49.250Z,11.53
2018-10-19T08:16:16.592Z,10.63
2018-10-19T08:18:43.880Z,11.53
2018-10-19T08:21:11.566Z,8.78
2018-10-19T08:23:38.787Z,10.23
2018-10-19T08:26:06.108Z,11.12
2018-10-19T08:28:33.374Z,11.33
2018-10-19T08:31:00.670Z,10.28
2018-10-19T08:33:28.641Z,11.35
2018-10-19T08:35:56.005Z,10.48
2018-10-19T08:38:23.310Z,9.78
2018-10-19T08:40:50.600Z,9.53
2018-10-19T08:43:18.071Z,9.40
2018-10-19T08:45:45.231Z,8.95
2018-10-19T08:48:12.547Z,8.55
2018-10-19T08:50:39.852Z,10.13
2018-10-19T08:53:07.249Z,9.63
2018-10-19T08:55:34.496Z,8.50
2018-10-19T08:58:01.997Z,9.90
2018-10-19T09:00:29.169Z,8.95
2018-10-19T09:02:56.499Z,8.88
2018-10-19T09:05:23.874Z,8.10
2018-10-19T09:07:51.667Z,8.48
2018-10-19T09:10:18.991Z,7.75
2018-10-19T09:12:46.482Z,8.95
2018-10-19T09:15:13.785Z,8.48
2018-10-19T09:17:40.982Z,8.55
2018-10-19T09:20:08.240Z,8.98
2018-10-19T09:22:35.519Z,7.87
2018-10-19T09:25:02.896Z,8.18
2018-10-19T09:27:30.290Z,8.00
2018-10-19T09:29:57.587Z,8.45
2018-10-19T09:32:24.893Z,8.03
2018-10-19T09:34:52.237Z,8.73
2018-10-19T09:37:19.496Z,7.83
2018-10-19T09:39:46.805Z,8.65
2018-10-19T09:42:14.161Z,7.05
2018-10-19T09:44:41.443Z,8.30
2018-10-19T09:47:08.807Z,8.20
2018-10-19T09:49:36.079Z,8.05
2018-10-19T09:52:03.423Z,7.58
2018-10-19T09:54:30.785Z,7.50
2018-10-19T09:56:58.196Z,7.40
2018-10-19T09:59:25.432Z,6.95
2018-10-19T10:01:52.790Z,7.62
2018-10-19T10:04:20.550Z,5.92
2018-10-19T10:06:47.883Z,7.15
2018-10-19T10:09:16.483Z,7.85
2018-10-19T10:11:43.885Z,7.10
2018-10-19T10:14:11.391Z,7.00
2018-10-19T10:16:38.726Z,6.80
2018-10-19T10:19:06.386Z,6.08
2018-10-19T10:21:33.608Z,5.90
2018-10-19T10:24:00.919Z,6.90
2018-10-19T10:26:28.214Z,6.60
2018-10-19T10:28:55.502Z,6.90
2018-10-19T10:31:23.226Z,6.00
2018-10-19T10:33:50.534Z,6.30
2018-10-19T10:36:17.841Z,6.00
2018-10-19T10:38:45.140Z,6.05
2018-10-19T10:41:12.426Z,5.12
2018-10-19T10:43:39.726Z,4.90
2018-10-19T10:46:07.087Z,4.83
2018-10-19T10:48:34.338Z,5.87
2018-10-19T10:51:01.676Z,5.50
2018-10-19T10:53:28.959Z,5.53
2018-10-19T10:55:56.350Z,6.00
2018-10-19T10:58:23.821Z,6.53
2018-10-19T11:00:51.101Z,6.20
2018-10-19T11:03:18.364Z,5.50
2018-10-19T11:05:45.674Z,5.50
2018-10-19T11:08:12.972Z,5.70
2018-10-19T11:10:40.404Z,5.65
2018-10-19T11:13:07.836Z,5.22
2018-10-19T11:15:35.150Z,6.20
2018-10-19T11:18:02.447Z,5.65
2018-10-19T11:20:29.815Z,5.40
2018-10-19T11:22:57.107Z,6.25
2018-10-19T11:25:24.421Z,6.35
2018-10-19T11:27:51.728Z,5.95
2018-10-19T11:30:19.343Z,6.20
2018-10-19T11:32:46.778Z,6.33
2018-10-19T11:35:14.064Z,5.15
2018-10-19T11:37:41.459Z,4.92
2018-10-19T11:40:18.788Z,6.30
2018-10-19T11:42:46.134Z,5.72
2018-10-19T11:45:13.455Z,5.25
2018-10-19T11:47:40.775Z,5.92
2018-10-19T11:50:08.084Z,5.95
2018-10-19T11:52:35.371Z,6.20
2018-10-19T11:55:02.713Z,6.45
2018-10-19T11:57:30.278Z,6.83
2018-10-19T11:59:57.594Z,7.08
2018-10-19T12:02:24.900Z,7.35
2018-10-19T12:04:52.238Z,6.12
2018-10-19T12:07:19.525Z,6.15
2018-10-19T12:09:46.808Z,7.20
2018-10-19T12:12:14.114Z,7.03
2018-10-19T12:14:41.454Z,5.87
2018-10-19T12:17:08.866Z,8.60
2018-10-19T12:19:36.279Z,6.37
2018-10-19T12:22:03.638Z,7.42
2018-10-19T12:24:31.268Z,7.35
2018-10-19T12:26:58.570Z,6.67
2018-10-19T12:29:25.870Z,6.70
2018-10-19T12:31:53.180Z,6.47
2018-10-19T12:34:20.470Z,6.80
2018-10-19T12:36:47.792Z,8.40
2018-10-19T12:39:15.172Z,6.78
2018-10-19T12:41:42.394Z,6.47
2018-10-19T12:44:09.728Z,7.05
2018-10-19T12:46:43.803Z,7.30
2018-10-19T12:49:12.477Z,7.03
2018-10-19T12:51:39.843Z,6.10
2018-10-19T12:54:07.492Z,6.87
2018-10-19T12:56:34.751Z,6.95
2018-10-19T12:59:02.063Z,7.37
2018-10-19T13:01:30.170Z,6.85
2018-10-19T13:03:57.927Z,7.17
2018-10-19T13:06:25.264Z,6.33
2018-10-19T13:08:52.960Z,7.53
2018-10-19T13:11:20.219Z,7.03
2018-10-19T13:13:47.533Z,7.15
2018-10-19T13:16:14.992Z,8.25
2018-10-19T13:18:42.365Z,7.08
2018-10-19T13:21:09.753Z,7.45
2018-10-19T13:23:37.390Z,7.40
2018-10-19T13:26:04.719Z,8.50
2018-10-19T13:28:32.156Z,7.65
2018-10-19T13:30:59.463Z,7.42
2018-10-19T13:33:26.906Z,7.65
2018-10-19T13:35:54.277Z,7.85
2018-10-19T13:38:22.470Z,7.60
2018-10-19T13:40:50.386Z,9.05
2018-10-19T13:43:18.594Z,7.60
2018-10-19T13:45:45.954Z,9.10
2018-10-19T13:48:14.228Z,8.95
2018-10-19T13:50:41.530Z,8.60
2018-10-19T13:53:08.957Z,9.30
2018-10-19T13:55:36.459Z,8.95
2018-10-19T13:58:03.770Z,8.70
2018-10-19T14:00:31.083Z,8.78
2018-10-19T14:02:58.764Z,9.95
2018-10-19T14:05:26.244Z,8.20
2018-10-19T14:07:53.466Z,9.03
2018-10-19T14:10:20.895Z,9.18
2018-10-19T14:12:48.199Z,9.28
2018-10-19T14:15:15.561Z,8.65
2018-10-19T14:17:42.773Z,8.73
2018-10-19T14:20:12.167Z,9.08
2018-10-19T14:22:39.781Z,9.15
2018-10-19T14:25:07.882Z,9.83
2018-10-19T14:27:35.793Z,9.83
2018-10-19T14:30:03.508Z,8.60
2018-10-19T14:32:30.798Z,10.23
2018-10-19T14:34:58.374Z,8.48
2018-10-19T14:37:25.683Z,8.33
2018-10-19T14:39:52.991Z,7.90
2018-10-19T14:42:20.294Z,8.10
2018-10-19T14:44:47.594Z,9.30
2018-10-19T14:47:14.938Z,8.00
2018-10-19T14:49:42.459Z,7.92
2018-10-19T14:52:09.813Z,8.20
2018-10-19T14:54:37.147Z,9.08
2018-10-19T14:57:04.868Z,9.58
2018-10-19T14:59:32.135Z,7.50
2018-10-19T15:01:59.441Z,8.58
2018-10-19T15:04:26.950Z,7.67
2018-10-19T15:06:54.519Z,7.15
2018-10-19T15:09:21.995Z,7.10
2018-10-19T15:11:49.294Z,7.05
2018-10-19T15:14:16.469Z,7.75
2018-10-19T15:16:43.913Z,7.62
2018-10-19T15:19:11.394Z,6.30
2018-10-19T15:21:38.750Z,7.65
2018-10-19T15:24:06.071Z,7.40
2018-10-19T15:26:33.324Z,7.28
2018-10-19T15:29:00.609Z,6.78
2018-10-19T15:31:27.903Z,8.93
2018-10-19T15:33:55.219Z,6.65
2018-10-19T15:36:22.512Z,6.78
2018-10-19T15:38:49.821Z,6.65
2018-10-19T15:41:17.171Z,7.35
2018-10-19T15:43:44.498Z,6.42
2018-10-19T15:46:11.801Z,7.20
2018-10-19T15:48:39.104Z,6.80
2018-10-19T15:51:06.467Z,7.03
2018-10-19T15:53:33.726Z,7.15
2018-10-19T15:56:01.034Z,6.70
2018-10-19T15:58:28.318Z,6.40
2018-10-19T16:00:55.583Z,6.65
2018-10-19T16:03:22.874Z,6.08
2018-10-19T16:05:50.185Z,6.60
2018-10-19T16:08:17.434Z,6.53
2018-10-19T16:10:44.778Z,6.70
2018-10-19T16:13:12.034Z,5.83
2018-10-19T16:15:39.348Z,6.75
2018-10-19T16:18:06.777Z,7.83
2018-10-19T16:20:34.110Z,6.70
2018-10-19T16:23:01.450Z,8.00
2018-10-19T16:25:28.755Z,6.72
2018-10-19T16:27:56.085Z,7.12
2018-10-19T16:30:23.383Z,7.08
2018-10-19T16:32:51.073Z,7.05
2018-10-19T16:35:18.380Z,8.00
2018-10-19T16:37:45.695Z,7.33
2018-10-19T16:40:12.987Z,7.42
2018-10-19T16:42:40.299Z,6.50
2018-10-19T16:45:08.315Z,6.17
2018-10-19T16:47:35.534Z,6.47
2018-10-19T16:50:02.910Z,7.05
2018-10-19T16:52:30.297Z,8.30
2018-10-19T16:54:57.628Z,7.97
2018-10-19T16:57:24.913Z,7.20
2018-10-19T16:59:52.652Z,6.92
2018-10-19T17:02:19.938Z,7.05
2018-10-19T17:04:47.338Z,6.58
2018-10-19T17:07:14.590Z,5.95
2018-10-19T17:09:41.887Z,5.65
2018-10-19T17:12:09.329Z,7.20
2018-10-19T17:14:36.591Z,5.90
2018-10-19T17:17:04.201Z,4.90
2018-10-19T17:19:31.515Z,6.25
2018-10-19T17:21:58.891Z,6.37
2018-10-19T17:24:26.262Z,5.67
2018-10-19T17:26:53.658Z,5.80
2018-10-19T17:29:20.995Z,6.67
2018-10-19T17:31:48.340Z,5.55
2018-10-19T17:34:15.716Z,5.12
2018-10-19T17:36:43.086Z,5.15
2018-10-19T17:39:11.540Z,5.67
2018-10-19T17:41:38.856Z,5.37
2018-10-19T17:44:06.277Z,5.20
2018-10-19T17:46:33.550Z,6.67
2018-10-19T17:49:00.824Z,4.45
2018-10-19T17:51:28.175Z,4.65
2018-10-19T17:53:55.973Z,4.30
2018-10-19T17:56:23.184Z,4.90
2018-10-19T17:58:50.485Z,4.85
2018-10-19T18:01:17.801Z,5.65
2018-10-19T18:03:45.372Z,9.38
2018-10-19T18:06:12.859Z,7.85
2018-10-19T18:08:40.071Z,8.00
2018-10-19T18:11:07.610Z,7.62
2018-10-19T18:13:34.983Z,8.18
2018-10-19T18:16:02.464Z,6.28
2018-10-19T18:18:29.654Z,6.95
2018-10-19T18:20:57.100Z,6.05
2018-10-19T18:23:24.793Z,5.75
2018-10-19T18:25:51.713Z,5.47
2018-10-19T18:28:19.028Z,5.28
2018-10-19T18:30:46.424Z,6.05
2018-10-19T18:33:13.735Z,5.67
2018-10-19T18:35:41.041Z,5.00
2018-10-19T18:38:08.451Z,5.22
2018-10-19T18:40:35.764Z,7.75
2018-10-19T18:43:03.187Z,5.97
2018-10-19T18:45:30.495Z,5.85
2018-10-19T18:47:57.774Z,5.35
2018-10-19T18:50:25.246Z,5.62
2018-10-19T18:52:52.494Z,5.30
2018-10-19T18:55:19.830Z,6.08
2018-10-19T18:57:47.185Z,5.45
2018-10-19T19:00:14.487Z,5.83
2018-10-19T19:02:41.791Z,7.75
2018-10-19T19:05:09.251Z,9.53
2018-10-19T19:07:36.487Z,8.10
2018-10-19T19:10:09.513Z,8.33
2018-10-19T19:12:36.921Z,7.40
2018-10-19T19:15:04.476Z,7.50
2018-10-19T19:17:31.846Z,7.00
2018-10-19T19:20:04.517Z,6.42
2018-10-19T19:22:31.848Z,7.42
2018-10-19T19:25:04.539Z,7.05
2018-10-19T19:27:31.834Z,6.97
2018-10-19T19:29:59.148Z,6.67
2018-10-19T19:32:26.440Z,5.78
2018-10-19T19:34:53.808Z,6.05
2018-10-19T19:37:21.058Z,7.33
2018-10-19T19:39:48.420Z,7.40
2018-10-19T19:42:21.072Z,8.10
2018-10-19T19:44:48.623Z,8.58
2018-10-19T19:47:21.328Z,8.45
2018-10-19T19:49:48.718Z,7.60
2018-10-19T19:52:17.163Z,7.30
2018-10-19T19:54:44.551Z,7.30
2018-10-19T19:57:11.886Z,6.53
2018-10-19T19:59:39.211Z,5.75
2018-10-19T20:02:06.730Z,6.60
2018-10-19T20:04:33.967Z,5.50
2018-10-19T20:07:01.599Z,7.12
2018-10-19T20:09:28.962Z,7.45
2018-10-19T20:11:56.282Z,5.95
2018-10-19T20:14:23.592Z,5.60
2018-10-19T20:16:50.950Z,6.00
2018-10-19T20:19:18.268Z,6.95
2018-10-19T20:21:45.583Z,6.33
2018-10-19T20:24:12.874Z,6.28
2018-10-19T20:26:40.620Z,6.60
2018-10-19T20:29:07.941Z,6.85
2018-10-19T20:31:35.330Z,6.40
2018-10-19T20:34:02.696Z,7.28
2018-10-19T20:36:30.033Z,6.62
2018-10-19T20:38:57.410Z,6.50
2018-10-19T20:41:24.862Z,7.92
2018-10-19T20:43:52.094Z,6.80
2018-10-19T20:46:19.458Z,6.40
2018-10-19T20:48:47.014Z,5.60
2018-10-19T20:51:14.428Z,6.08
2018-10-19T20:53:41.859Z,6.00
2018-10-19T20:56:09.182Z,6.97
2018-10-19T20:58:36.647Z,6.03
2018-10-19T21:01:03.964Z,6.97
2018-10-19T21:03:31.348Z,7.05
2018-10-19T21:05:58.748Z,6.65
2018-10-19T21:08:26.118Z,10.00
2018-10-19T21:10:53.517Z,12.95
2018-10-19T21:13:20.791Z,19.90
2018-10-19T21:15:48.117Z,12.50
2018-10-19T21:18:15.514Z,8.70
2018-10-19T21:20:42.830Z,10.80
2018-10-19T21:23:10.170Z,12.80
2018-10-19T21:25:37.443Z,11.60
2018-10-19T21:28:05.134Z,9.08
2018-10-19T21:30:32.458Z,8.30
2018-10-19T21:32:59.843Z,11.33
2018-10-19T21:35:27.159Z,12.53
2018-10-19T21:37:54.482Z,9.18
2018-10-19T21:40:21.788Z,9.68
2018-10-19T21:42:49.119Z,8.93
2018-10-19T21:45:16.464Z,10.63
2018-10-19T21:47:43.766Z,9.98
2018-10-19T21:50:11.113Z,8.60
2018-10-19T21:52:38.611Z,7.90
2018-10-19T21:55:06.463Z,7.83
2018-10-19T21:57:33.765Z,7.30
2018-10-19T22:00:01.122Z,6.78
2018-10-19T22:02:28.423Z,8.00
2018-10-19T22:04:55.738Z,7.67
2018-10-19T22:07:23.119Z,7.42
2018-10-19T22:09:50.426Z,7.22
2018-10-19T22:12:18.249Z,6.85
2018-10-19T22:14:45.577Z,7.67
2018-10-19T22:17:12.953Z,6.20
2018-10-19T22:19:40.176Z,6.03
2018-10-19T22:22:07.614Z,6.75
2018-10-19T22:24:34.940Z,6.10
2018-10-19T22:27:02.242Z,7.08
2018-10-19T22:29:29.594Z,7.00
2018-10-19T22:31:56.895Z,6.05
2018-10-19T22:34:24.284Z,6.37
2018-10-19T22:36:51.550Z,7.20
2018-10-19T22:39:19.271Z,6.65
2018-10-19T22:41:46.562Z,6.25
2018-10-19T22:44:13.943Z,6.72
2018-10-19T22:46:41.251Z,6.37
2018-10-19T22:49:08.675Z,6.20
2018-10-19T22:51:35.970Z,5.70
2018-10-19T22:54:03.317Z,6.95
2018-10-19T22:56:30.661Z,6.50
2018-10-19T22:58:57.991Z,5.45
2018-10-19T23:01:25.293Z,6.70
2018-10-19T23:03:52.715Z,7.15
2018-10-19T23:06:20.103Z,7.30
2018-10-19T23:08:47.346Z,7.83
2018-10-19T23:11:14.792Z,7.08
2018-10-19T23:13:42.120Z,6.35
2018-10-19T23:16:09.478Z,6.17
2018-10-19T23:18:36.758Z,6.10
2018-10-19T23:21:04.038Z,6.80
2018-10-19T23:23:31.363Z,7.15
2018-10-19T23:25:58.650Z,7.22
2018-10-19T23:28:25.961Z,7.35
2018-10-19T23:30:53.284Z,7.85
2018-10-19T23:33:20.584Z,7.25
2018-10-19T23:35:47.916Z,7.95
2018-10-19T23:38:15.181Z,6.53
2018-10-19T23:40:42.570Z,7.40
2018-10-19T23:43:09.972Z,6.78
2018-10-19T23:45:37.281Z,7.03
2018-10-19T23:48:04.605Z,6.17
2018-10-19T23:50:31.875Z,6.42
2018-10-19T23:52:59.239Z,6.85
2018-10-19T23:55:26.497Z,8.08
2018-10-19T23:57:53.834Z,7.35
